sensor_id;sensor_type;location;lat;lon;timestamp;P1;durP1;ratioP1;P2;durP2;ratioP2
37529;SDS011;23374;52.758;6.872;2023-03-20T00:00:41;10.20;;;4.90;;
37529;SDS011;23374;52.758;6.872;2023-03-20T00:03:03;8.03;;;4.20;;
37529;SDS011;23374;52.758;6.872;2023-03-20T00:05:25;8.90;;;4.67;;
37529;SDS011;23374;52.758;6.872;2023-03-20T00:07:47;9.27;;;4.83;;
37529;SDS011;23374;52.758;6.872;2023-03-20T00:10:09;10.77;;;4.97;;
37529;SDS011;23374;52.758;6.872;2023-03-20T00:12:30;11.97;;;5.40;;
37529;SDS011;23374;52.758;6.872;2023-03-20T00:14:51;10.90;;;5.07;;
37529;SDS011;23374;52.758;6.872;2023-03-20T00:17:18;9.73;;;4.70;;
37529;SDS011;23374;52.758;6.872;2023-03-20T00:19:40;9.37;;;4.77;;
37529;SDS011;23374;52.758;6.872;2023-03-20T00:22:00;11.87;;;4.67;;
37529;SDS011;23374;52.758;6.872;2023-03-20T00:24:22;10.77;;;4.83;;
37529;SDS011;23374;52.758;6.872;2023-03-20T00:26:44;9.67;;;4.97;;
37529;SDS011;23374;52.758;6.872;2023-03-20T00:29:06;7.37;;;4.20;;
37529;SDS011;23374;52.758;6.872;2023-03-20T00:31:36;12.67;;;5.67;;
37529;SDS011;23374;52.758;6.872;2023-03-20T00:34:00;9.03;;;4.80;;
37529;SDS011;23374;52.758;6.872;2023-03-20T00:36:23;11.23;;;5.37;;
37529;SDS011;23374;52.758;6.872;2023-03-20T00:38:50;11.20;;;4.97;;
37529;SDS011;23374;52.758;6.872;2023-03-20T00:41:49;11.90;;;5.40;;
37529;SDS011;23374;52.758;6.872;2023-03-20T00:44:21;16.27;;;5.77;;
37529;SDS011;23374;52.758;6.872;2023-03-20T00:47:24;17.87;;;5.87;;
37529;SDS011;23374;52.758;6.872;2023-03-20T00:49:47;16.03;;;6.17;;
37529;SDS011;23374;52.758;6.872;2023-03-20T00:52:11;13.00;;;5.73;;
37529;SDS011;23374;52.758;6.872;2023-03-20T00:54:33;19.17;;;6.93;;
37529;SDS011;23374;52.758;6.872;2023-03-20T00:57:07;14.13;;;6.13;;
37529;SDS011;23374;52.758;6.872;2023-03-20T01:03:13;18.07;;;6.77;;
37529;SDS011;23374;52.758;6.872;2023-03-20T01:05:36;15.83;;;6.30;;
37529;SDS011;23374;52.758;6.872;2023-03-20T01:07:57;22.00;;;6.80;;
37529;SDS011;23374;52.758;6.872;2023-03-20T01:10:17;18.67;;;6.97;;
37529;SDS011;23374;52.758;6.872;2023-03-20T01:12:39;22.07;;;7.00;;
37529;SDS011;23374;52.758;6.872;2023-03-20T01:15:00;20.63;;;7.77;;
37529;SDS011;23374;52.758;6.872;2023-03-20T01:17:21;15.33;;;7.10;;
37529;SDS011;23374;52.758;6.872;2023-03-20T01:19:43;23.97;;;6.97;;
37529;SDS011;23374;52.758;6.872;2023-03-20T01:22:03;13.87;;;6.20;;
37529;SDS011;23374;52.758;6.872;2023-03-20T01:24:24;18.50;;;6.40;;
37529;SDS011;23374;52.758;6.872;2023-03-20T01:26:45;14.90;;;6.43;;
37529;SDS011;23374;52.758;6.872;2023-03-20T01:29:24;16.00;;;6.23;;
37529;SDS011;23374;52.758;6.872;2023-03-20T01:31:49;14.27;;;6.33;;
37529;SDS011;23374;52.758;6.872;2023-03-20T01:34:10;12.37;;;5.53;;
37529;SDS011;23374;52.758;6.872;2023-03-20T01:36:31;11.70;;;5.03;;
37529;SDS011;23374;52.758;6.872;2023-03-20T01:38:55;14.30;;;4.33;;
37529;SDS011;23374;52.758;6.872;2023-03-20T01:41:22;12.57;;;4.00;;
37529;SDS011;23374;52.758;6.872;2023-03-20T01:43:44;10.60;;;4.47;;
37529;SDS011;23374;52.758;6.872;2023-03-20T01:46:25;12.73;;;3.67;;
37529;SDS011;23374;52.758;6.872;2023-03-20T01:48:57;12.50;;;4.40;;
37529;SDS011;23374;52.758;6.872;2023-03-20T01:52:34;10.30;;;3.70;;
37529;SDS011;23374;52.758;6.872;2023-03-20T01:54:54;6.70;;;3.23;;
37529;SDS011;23374;52.758;6.872;2023-03-20T01:57:19;9.00;;;4.13;;
37529;SDS011;23374;52.758;6.872;2023-03-20T01:59:52;16.17;;;3.90;;
37529;SDS011;23374;52.758;6.872;2023-03-20T02:02:27;10.17;;;4.33;;
37529;SDS011;23374;52.758;6.872;2023-03-20T02:04:53;10.37;;;3.90;;
37529;SDS011;23374;52.758;6.872;2023-03-20T02:07:17;11.70;;;3.33;;
37529;SDS011;23374;52.758;6.872;2023-03-20T02:09:40;7.87;;;3.57;;
37529;SDS011;23374;52.758;6.872;2023-03-20T02:12:01;10.57;;;3.73;;
37529;SDS011;23374;52.758;6.872;2023-03-20T02:14:23;8.97;;;3.63;;
37529;SDS011;23374;52.758;6.872;2023-03-20T02:16:44;6.93;;;3.77;;
37529;SDS011;23374;52.758;6.872;2023-03-20T02:19:08;7.13;;;3.17;;
37529;SDS011;23374;52.758;6.872;2023-03-20T02:22:40;7.97;;;3.60;;
37529;SDS011;23374;52.758;6.872;2023-03-20T02:35:13;11.53;;;3.93;;
37529;SDS011;23374;52.758;6.872;2023-03-20T02:39:06;10.47;;;3.53;;
37529;SDS011;23374;52.758;6.872;2023-03-20T02:42:10;8.53;;;3.83;;
37529;SDS011;23374;52.758;6.872;2023-03-20T02:45:04;8.40;;;3.57;;
37529;SDS011;23374;52.758;6.872;2023-03-20T02:47:47;11.00;;;3.90;;
37529;SDS011;23374;52.758;6.872;2023-03-20T02:50:18;12.20;;;5.00;;
37529;SDS011;23374;52.758;6.872;2023-03-20T02:55:47;13.33;;;4.87;;
37529;SDS011;23374;52.758;6.872;2023-03-20T03:05:07;9.77;;;4.33;;
37529;SDS011;23374;52.758;6.872;2023-03-20T03:07:35;15.07;;;5.10;;
37529;SDS011;23374;52.758;6.872;2023-03-20T03:10:04;13.30;;;5.53;;
37529;SDS011;23374;52.758;6.872;2023-03-20T03:12:39;14.77;;;7.07;;
37529;SDS011;23374;52.758;6.872;2023-03-20T03:15:23;18.40;;;7.37;;
37529;SDS011;23374;52.758;6.872;2023-03-20T03:17:48;15.37;;;6.43;;
37529;SDS011;23374;52.758;6.872;2023-03-20T03:20:22;17.47;;;7.10;;
37529;SDS011;23374;52.758;6.872;2023-03-20T03:22:49;26.90;;;7.30;;
37529;SDS011;23374;52.758;6.872;2023-03-20T03:25:11;18.97;;;7.30;;
37529;SDS011;23374;52.758;6.872;2023-03-20T03:27:37;13.50;;;6.33;;
37529;SDS011;23374;52.758;6.872;2023-03-20T03:30:19;15.57;;;6.53;;
37529;SDS011;23374;52.758;6.872;2023-03-20T03:32:50;17.70;;;8.13;;
37529;SDS011;23374;52.758;6.872;2023-03-20T03:35:49;20.23;;;6.33;;
37529;SDS011;23374;52.758;6.872;2023-03-20T03:45:07;17.87;;;7.67;;
37529;SDS011;23374;52.758;6.872;2023-03-20T03:47:39;21.87;;;7.03;;
37529;SDS011;23374;52.758;6.872;2023-03-20T03:50:19;19.33;;;6.97;;
37529;SDS011;23374;52.758;6.872;2023-03-20T03:52:47;15.10;;;7.37;;
37529;SDS011;23374;52.758;6.872;2023-03-20T03:55:12;17.57;;;7.20;;
37529;SDS011;23374;52.758;6.872;2023-03-20T03:57:45;19.97;;;7.70;;
37529;SDS011;23374;52.758;6.872;2023-03-20T04:00:10;13.67;;;7.03;;
37529;SDS011;23374;52.758;6.872;2023-03-20T04:02:33;18.30;;;6.93;;
37529;SDS011;23374;52.758;6.872;2023-03-20T04:04:54;18.53;;;7.23;;
37529;SDS011;23374;52.758;6.872;2023-03-20T04:07:15;20.83;;;7.33;;
37529;SDS011;23374;52.758;6.872;2023-03-20T04:09:37;22.17;;;8.00;;
37529;SDS011;23374;52.758;6.872;2023-03-20T04:11:57;15.23;;;6.40;;
37529;SDS011;23374;52.758;6.872;2023-03-20T04:14:18;12.77;;;5.70;;
37529;SDS011;23374;52.758;6.872;2023-03-20T04:16:40;17.50;;;7.20;;
37529;SDS011;23374;52.758;6.872;2023-03-20T04:19:01;13.97;;;6.13;;
37529;SDS011;23374;52.758;6.872;2023-03-20T04:21:21;15.33;;;6.20;;
37529;SDS011;23374;52.758;6.872;2023-03-20T04:23:42;17.40;;;6.30;;
37529;SDS011;23374;52.758;6.872;2023-03-20T04:26:04;14.03;;;5.83;;
37529;SDS011;23374;52.758;6.872;2023-03-20T04:28:34;16.10;;;5.30;;
37529;SDS011;23374;52.758;6.872;2023-03-20T04:30:56;9.73;;;4.70;;
37529;SDS011;23374;52.758;6.872;2023-03-20T04:33:18;13.63;;;4.70;;
37529;SDS011;23374;52.758;6.872;2023-03-20T04:35:39;8.27;;;4.10;;
37529;SDS011;23374;52.758;6.872;2023-03-20T04:38:00;12.73;;;4.83;;
37529;SDS011;23374;52.758;6.872;2023-03-20T04:40:20;8.97;;;4.10;;
37529;SDS011;23374;52.758;6.872;2023-03-20T04:42:41;8.27;;;3.70;;
37529;SDS011;23374;52.758;6.872;2023-03-20T04:45:02;10.03;;;4.60;;
37529;SDS011;23374;52.758;6.872;2023-03-20T04:47:24;8.40;;;3.90;;
37529;SDS011;23374;52.758;6.872;2023-03-20T04:49:44;13.10;;;4.63;;
37529;SDS011;23374;52.758;6.872;2023-03-20T04:52:04;10.33;;;3.97;;
37529;SDS011;23374;52.758;6.872;2023-03-20T04:54:25;7.60;;;4.17;;
37529;SDS011;23374;52.758;6.872;2023-03-20T04:56:54;9.20;;;3.70;;
37529;SDS011;23374;52.758;6.872;2023-03-20T04:59:15;9.43;;;4.40;;
37529;SDS011;23374;52.758;6.872;2023-03-20T05:01:36;13.13;;;4.27;;
37529;SDS011;23374;52.758;6.872;2023-03-20T05:03:56;11.33;;;4.17;;
37529;SDS011;23374;52.758;6.872;2023-03-20T05:06:19;8.20;;;3.93;;
37529;SDS011;23374;52.758;6.872;2023-03-20T05:08:40;7.83;;;4.33;;
37529;SDS011;23374;52.758;6.872;2023-03-20T05:11:04;10.33;;;4.83;;
37529;SDS011;23374;52.758;6.872;2023-03-20T05:13:25;8.33;;;4.57;;
37529;SDS011;23374;52.758;6.872;2023-03-20T05:15:46;11.47;;;4.63;;
37529;SDS011;23374;52.758;6.872;2023-03-20T05:18:07;10.60;;;4.73;;
37529;SDS011;23374;52.758;6.872;2023-03-20T05:20:28;17.00;;;5.40;;
37529;SDS011;23374;52.758;6.872;2023-03-20T05:22:49;13.20;;;5.50;;
37529;SDS011;23374;52.758;6.872;2023-03-20T05:25:10;8.93;;;3.63;;
37529;SDS011;23374;52.758;6.872;2023-03-20T05:27:30;11.47;;;5.00;;
37529;SDS011;23374;52.758;6.872;2023-03-20T05:29:51;11.53;;;5.57;;
37529;SDS011;23374;52.758;6.872;2023-03-20T05:32:13;11.80;;;5.63;;
37529;SDS011;23374;52.758;6.872;2023-03-20T05:34:34;15.67;;;6.13;;
37529;SDS011;23374;52.758;6.872;2023-03-20T05:36:56;15.47;;;6.43;;
37529;SDS011;23374;52.758;6.872;2023-03-20T05:39:18;11.37;;;6.20;;
37529;SDS011;23374;52.758;6.872;2023-03-20T05:41:38;11.23;;;5.43;;
37529;SDS011;23374;52.758;6.872;2023-03-20T05:43:59;14.27;;;6.27;;
37529;SDS011;23374;52.758;6.872;2023-03-20T05:46:19;17.57;;;6.50;;
37529;SDS011;23374;52.758;6.872;2023-03-20T05:48:41;13.03;;;6.17;;
37529;SDS011;23374;52.758;6.872;2023-03-20T05:51:02;13.47;;;6.97;;
37529;SDS011;23374;52.758;6.872;2023-03-20T05:53:24;14.27;;;6.60;;
37529;SDS011;23374;52.758;6.872;2023-03-20T05:55:44;12.40;;;6.63;;
37529;SDS011;23374;52.758;6.872;2023-03-20T05:58:05;15.13;;;7.23;;
37529;SDS011;23374;52.758;6.872;2023-03-20T06:00:25;12.80;;;6.33;;
37529;SDS011;23374;52.758;6.872;2023-03-20T06:02:46;14.83;;;6.80;;
37529;SDS011;23374;52.758;6.872;2023-03-20T06:05:07;12.43;;;6.43;;
37529;SDS011;23374;52.758;6.872;2023-03-20T06:07:28;12.17;;;6.20;;
37529;SDS011;23374;52.758;6.872;2023-03-20T06:09:48;10.90;;;5.90;;
37529;SDS011;23374;52.758;6.872;2023-03-20T06:12:10;12.50;;;6.13;;
37529;SDS011;23374;52.758;6.872;2023-03-20T06:14:31;17.03;;;6.67;;
37529;SDS011;23374;52.758;6.872;2023-03-20T06:16:51;15.30;;;6.03;;
37529;SDS011;23374;52.758;6.872;2023-03-20T06:19:13;15.13;;;6.13;;
37529;SDS011;23374;52.758;6.872;2023-03-20T06:21:33;13.93;;;5.87;;
37529;SDS011;23374;52.758;6.872;2023-03-20T06:23:54;11.10;;;5.00;;
37529;SDS011;23374;52.758;6.872;2023-03-20T06:26:16;11.60;;;5.20;;
37529;SDS011;23374;52.758;6.872;2023-03-20T06:28:36;10.83;;;5.20;;
37529;SDS011;23374;52.758;6.872;2023-03-20T06:30:56;9.23;;;4.47;;
37529;SDS011;23374;52.758;6.872;2023-03-20T06:33:17;11.37;;;5.47;;
37529;SDS011;23374;52.758;6.872;2023-03-20T06:35:37;10.03;;;5.13;;
37529;SDS011;23374;52.758;6.872;2023-03-20T06:37:58;10.30;;;4.93;;
37529;SDS011;23374;52.758;6.872;2023-03-20T06:40:20;10.73;;;4.70;;
37529;SDS011;23374;52.758;6.872;2023-03-20T06:42:46;10.63;;;5.23;;
37529;SDS011;23374;52.758;6.872;2023-03-20T06:45:08;12.27;;;5.07;;
37529;SDS011;23374;52.758;6.872;2023-03-20T06:47:30;13.23;;;5.17;;
37529;SDS011;23374;52.758;6.872;2023-03-20T06:49:50;13.77;;;4.33;;
37529;SDS011;23374;52.758;6.872;2023-03-20T06:52:15;10.67;;;4.70;;
37529;SDS011;23374;52.758;6.872;2023-03-20T06:54:37;9.30;;;4.47;;
37529;SDS011;23374;52.758;6.872;2023-03-20T06:56:57;10.67;;;4.60;;
37529;SDS011;23374;52.758;6.872;2023-03-20T06:59:17;8.27;;;3.90;;
37529;SDS011;23374;52.758;6.872;2023-03-20T07:01:53;8.30;;;4.40;;
37529;SDS011;23374;52.758;6.872;2023-03-20T07:04:19;11.03;;;4.87;;
37529;SDS011;23374;52.758;6.872;2023-03-20T07:06:41;10.83;;;5.13;;
37529;SDS011;23374;52.758;6.872;2023-03-20T07:09:01;7.60;;;4.47;;
37529;SDS011;23374;52.758;6.872;2023-03-20T07:11:31;7.93;;;4.00;;
37529;SDS011;23374;52.758;6.872;2023-03-20T07:13:53;12.00;;;4.13;;
37529;SDS011;23374;52.758;6.872;2023-03-20T07:16:13;8.67;;;4.27;;
37529;SDS011;23374;52.758;6.872;2023-03-20T07:18:35;13.83;;;4.60;;
37529;SDS011;23374;52.758;6.872;2023-03-20T07:21:00;19.13;;;5.97;;
37529;SDS011;23374;52.758;6.872;2023-03-20T07:23:22;14.43;;;5.00;;
37529;SDS011;23374;52.758;6.872;2023-03-20T07:25:43;15.83;;;5.10;;
37529;SDS011;23374;52.758;6.872;2023-03-20T07:28:04;10.57;;;4.30;;
37529;SDS011;23374;52.758;6.872;2023-03-20T07:30:24;7.83;;;3.97;;
37529;SDS011;23374;52.758;6.872;2023-03-20T07:32:44;10.83;;;4.13;;
37529;SDS011;23374;52.758;6.872;2023-03-20T07:35:10;9.37;;;4.60;;
37529;SDS011;23374;52.758;6.872;2023-03-20T07:37:31;20.87;;;5.73;;
37529;SDS011;23374;52.758;6.872;2023-03-20T07:39:52;9.40;;;4.40;;
37529;SDS011;23374;52.758;6.872;2023-03-20T07:42:13;8.10;;;3.67;;
37529;SDS011;23374;52.758;6.872;2023-03-20T07:44:35;14.87;;;4.67;;
37529;SDS011;23374;52.758;6.872;2023-03-20T07:46:56;18.83;;;5.50;;
37529;SDS011;23374;52.758;6.872;2023-03-20T07:49:16;10.57;;;4.53;;
37529;SDS011;23374;52.758;6.872;2023-03-20T07:51:37;13.70;;;5.03;;
37529;SDS011;23374;52.758;6.872;2023-03-20T07:54:12;9.07;;;4.03;;
37529;SDS011;23374;52.758;6.872;2023-03-20T07:56:33;9.50;;;3.87;;
37529;SDS011;23374;52.758;6.872;2023-03-20T07:58:54;10.43;;;4.47;;
37529;SDS011;23374;52.758;6.872;2023-03-20T08:01:14;8.53;;;4.13;;
37529;SDS011;23374;52.758;6.872;2023-03-20T08:03:35;10.47;;;4.63;;
37529;SDS011;23374;52.758;6.872;2023-03-20T08:05:58;8.27;;;4.43;;
37529;SDS011;23374;52.758;6.872;2023-03-20T08:08:18;9.03;;;4.40;;
37529;SDS011;23374;52.758;6.872;2023-03-20T08:10:39;8.47;;;4.60;;
37529;SDS011;23374;52.758;6.872;2023-03-20T08:13:00;10.37;;;4.97;;
37529;SDS011;23374;52.758;6.872;2023-03-20T08:15:17;7.13;;;4.10;;
37529;SDS011;23374;52.758;6.872;2023-03-20T08:17:45;12.40;;;4.27;;
37529;SDS011;23374;52.758;6.872;2023-03-20T08:20:06;11.23;;;4.40;;
37529;SDS011;23374;52.758;6.872;2023-03-20T08:22:29;9.33;;;4.67;;
37529;SDS011;23374;52.758;6.872;2023-03-20T08:24:50;11.63;;;4.40;;
37529;SDS011;23374;52.758;6.872;2023-03-20T08:27:11;10.90;;;5.03;;
37529;SDS011;23374;52.758;6.872;2023-03-20T08:29:32;12.43;;;4.87;;
37529;SDS011;23374;52.758;6.872;2023-03-20T08:31:53;11.10;;;4.97;;
37529;SDS011;23374;52.758;6.872;2023-03-20T08:34:13;15.80;;;5.70;;
37529;SDS011;23374;52.758;6.872;2023-03-20T08:36:35;11.20;;;4.77;;
37529;SDS011;23374;52.758;6.872;2023-03-20T08:38:58;9.80;;;5.17;;
37529;SDS011;23374;52.758;6.872;2023-03-20T08:41:19;10.53;;;4.97;;
37529;SDS011;23374;52.758;6.872;2023-03-20T08:43:37;11.93;;;5.07;;
37529;SDS011;23374;52.758;6.872;2023-03-20T08:45:58;13.60;;;5.17;;
37529;SDS011;23374;52.758;6.872;2023-03-20T08:48:18;9.63;;;5.03;;
37529;SDS011;23374;52.758;6.872;2023-03-20T08:50:39;10.13;;;5.00;;
37529;SDS011;23374;52.758;6.872;2023-03-20T08:53:01;8.97;;;4.63;;
37529;SDS011;23374;52.758;6.872;2023-03-20T08:55:22;10.60;;;5.40;;
37529;SDS011;23374;52.758;6.872;2023-03-20T08:57:43;9.63;;;4.57;;
37529;SDS011;23374;52.758;6.872;2023-03-20T09:00:04;12.67;;;5.50;;
37529;SDS011;23374;52.758;6.872;2023-03-20T09:02:27;9.73;;;4.50;;
37529;SDS011;23374;52.758;6.872;2023-03-20T09:04:48;12.03;;;6.07;;
37529;SDS011;23374;52.758;6.872;2023-03-20T09:07:08;11.87;;;4.90;;
37529;SDS011;23374;52.758;6.872;2023-03-20T09:09:29;12.83;;;6.13;;
37529;SDS011;23374;52.758;6.872;2023-03-20T09:11:50;9.43;;;5.40;;
37529;SDS011;23374;52.758;6.872;2023-03-20T09:14:10;10.93;;;4.80;;
37529;SDS011;23374;52.758;6.872;2023-03-20T09:16:30;13.37;;;5.30;;
37529;SDS011;23374;52.758;6.872;2023-03-20T09:18:54;14.90;;;5.90;;
37529;SDS011;23374;52.758;6.872;2023-03-20T09:21:15;9.03;;;5.27;;
37529;SDS011;23374;52.758;6.872;2023-03-20T09:23:35;12.40;;;5.77;;
37529;SDS011;23374;52.758;6.872;2023-03-20T09:25:56;18.40;;;6.87;;
37529;SDS011;23374;52.758;6.872;2023-03-20T09:28:16;11.90;;;5.33;;
37529;SDS011;23374;52.758;6.872;2023-03-20T09:30:37;10.70;;;5.70;;
37529;SDS011;23374;52.758;6.872;2023-03-20T09:32:58;10.67;;;5.10;;
37529;SDS011;23374;52.758;6.872;2023-03-20T09:35:18;11.17;;;4.87;;
37529;SDS011;23374;52.758;6.872;2023-03-20T09:37:40;11.80;;;5.27;;
37529;SDS011;23374;52.758;6.872;2023-03-20T09:40:00;16.87;;;6.17;;
37529;SDS011;23374;52.758;6.872;2023-03-20T09:44:11;11.33;;;5.10;;
37529;SDS011;23374;52.758;6.872;2023-03-20T09:48:34;8.17;;;4.73;;
37529;SDS011;23374;52.758;6.872;2023-03-20T09:51:43;12.00;;;5.07;;
37529;SDS011;23374;52.758;6.872;2023-03-20T09:54:23;8.73;;;4.20;;
37529;SDS011;23374;52.758;6.872;2023-03-20T09:56:52;10.03;;;5.00;;
37529;SDS011;23374;52.758;6.872;2023-03-20T09:59:18;11.80;;;5.20;;
37529;SDS011;23374;52.758;6.872;2023-03-20T10:01:47;9.00;;;4.77;;
37529;SDS011;23374;52.758;6.872;2023-03-20T10:04:24;9.53;;;4.53;;
37529;SDS011;23374;52.758;6.872;2023-03-20T10:06:47;9.00;;;5.47;;
37529;SDS011;23374;52.758;6.872;2023-03-20T10:09:17;9.97;;;5.10;;
37529;SDS011;23374;52.758;6.872;2023-03-20T10:12:28;11.23;;;5.30;;
37529;SDS011;23374;52.758;6.872;2023-03-20T10:15:16;9.13;;;4.53;;
37529;SDS011;23374;52.758;6.872;2023-03-20T10:18:10;11.50;;;4.93;;
37529;SDS011;23374;52.758;6.872;2023-03-20T10:20:53;9.50;;;4.37;;
37529;SDS011;23374;52.758;6.872;2023-03-20T10:26:20;8.50;;;4.27;;
37529;SDS011;23374;52.758;6.872;2023-03-20T10:28:54;8.00;;;3.93;;
37529;SDS011;23374;52.758;6.872;2023-03-20T10:31:32;5.57;;;3.50;;
37529;SDS011;23374;52.758;6.872;2023-03-20T10:41:52;5.63;;;2.57;;
37529;SDS011;23374;52.758;6.872;2023-03-20T10:44:40;7.53;;;3.30;;
37529;SDS011;23374;52.758;6.872;2023-03-20T10:47:09;10.70;;;4.23;;
37529;SDS011;23374;52.758;6.872;2023-03-20T10:49:51;9.53;;;4.23;;
37529;SDS011;23374;52.758;6.872;2023-03-20T10:52:23;8.00;;;4.13;;
37529;SDS011;23374;52.758;6.872;2023-03-20T10:54:51;9.63;;;4.23;;
37529;SDS011;23374;52.758;6.872;2023-03-20T10:57:36;10.43;;;4.30;;
37529;SDS011;23374;52.758;6.872;2023-03-20T11:00:02;10.83;;;4.60;;
37529;SDS011;23374;52.758;6.872;2023-03-20T11:02:30;12.43;;;4.80;;
37529;SDS011;23374;52.758;6.872;2023-03-20T11:04:51;9.33;;;4.47;;
37529;SDS011;23374;52.758;6.872;2023-03-20T11:07:26;6.63;;;4.53;;
37529;SDS011;23374;52.758;6.872;2023-03-20T11:12:33;8.00;;;5.10;;
37529;SDS011;23374;52.758;6.872;2023-03-20T11:15:04;11.60;;;5.23;;
37529;SDS011;23374;52.758;6.872;2023-03-20T11:17:58;11.73;;;5.37;;
37529;SDS011;23374;52.758;6.872;2023-03-20T11:20:25;14.47;;;5.83;;
37529;SDS011;23374;52.758;6.872;2023-03-20T11:22:47;13.07;;;6.50;;
37529;SDS011;23374;52.758;6.872;2023-03-20T11:25:22;13.23;;;6.00;;
37529;SDS011;23374;52.758;6.872;2023-03-20T11:27:51;11.23;;;6.17;;
37529;SDS011;23374;52.758;6.872;2023-03-20T11:30:15;15.63;;;6.40;;
37529;SDS011;23374;52.758;6.872;2023-03-20T11:32:49;11.37;;;5.90;;
37529;SDS011;23374;52.758;6.872;2023-03-20T11:35:32;10.77;;;5.40;;
37529;SDS011;23374;52.758;6.872;2023-03-20T11:38:11;12.50;;;5.23;;
37529;SDS011;23374;52.758;6.872;2023-03-20T11:40:36;6.97;;;4.40;;
37529;SDS011;23374;52.758;6.872;2023-03-20T11:43:23;9.77;;;5.13;;
37529;SDS011;23374;52.758;6.872;2023-03-20T11:45:53;11.90;;;4.90;;
37529;SDS011;23374;52.758;6.872;2023-03-20T11:48:21;10.30;;;4.73;;
37529;SDS011;23374;52.758;6.872;2023-03-20T11:51:20;8.50;;;4.33;;
37529;SDS011;23374;52.758;6.872;2023-03-20T11:54:27;11.53;;;4.73;;
37529;SDS011;23374;52.758;6.872;2023-03-20T11:56:53;9.30;;;5.47;;
37529;SDS011;23374;52.758;6.872;2023-03-20T11:59:18;10.23;;;5.57;;
37529;SDS011;23374;52.758;6.872;2023-03-20T12:01:51;7.87;;;5.03;;
37529;SDS011;23374;52.758;6.872;2023-03-20T12:04:19;8.50;;;4.50;;
37529;SDS011;23374;52.758;6.872;2023-03-20T12:07:05;9.27;;;5.00;;
37529;SDS011;23374;52.758;6.872;2023-03-20T12:10:13;10.37;;;4.87;;
37529;SDS011;23374;52.758;6.872;2023-03-20T12:12:48;7.30;;;4.33;;
37529;SDS011;23374;52.758;6.872;2023-03-20T12:15:39;9.17;;;4.60;;
37529;SDS011;23374;52.758;6.872;2023-03-20T12:21:39;9.70;;;4.77;;
37529;SDS011;23374;52.758;6.872;2023-03-20T12:36:45;7.30;;;3.97;;
37529;SDS011;23374;52.758;6.872;2023-03-20T12:39:14;5.93;;;3.40;;
37529;SDS011;23374;52.758;6.872;2023-03-20T12:50:41;6.07;;;3.30;;
37529;SDS011;23374;52.758;6.872;2023-03-20T12:58:47;7.83;;;3.23;;
37529;SDS011;23374;52.758;6.872;2023-03-20T13:01:31;7.30;;;3.13;;
37529;SDS011;23374;52.758;6.872;2023-03-20T13:13:29;4.73;;;2.30;;
37529;SDS011;23374;52.758;6.872;2023-03-20T13:17:10;4.87;;;2.70;;
37529;SDS011;23374;52.758;6.872;2023-03-20T13:22:36;7.07;;;2.57;;
37529;SDS011;23374;52.758;6.872;2023-03-20T13:26:49;5.80;;;2.10;;
37529;SDS011;23374;52.758;6.872;2023-03-20T13:33:23;6.53;;;2.63;;
37529;SDS011;23374;52.758;6.872;2023-03-20T13:39:34;6.50;;;2.27;;
37529;SDS011;23374;52.758;6.872;2023-03-20T13:42:01;7.03;;;2.20;;
37529;SDS011;23374;52.758;6.872;2023-03-20T13:44:28;3.33;;;2.30;;
37529;SDS011;23374;52.758;6.872;2023-03-20T13:47:05;6.40;;;2.23;;
37529;SDS011;23374;52.758;6.872;2023-03-20T13:49:45;5.07;;;2.40;;
37529;SDS011;23374;52.758;6.872;2023-03-20T14:01:13;5.67;;;2.13;;
37529;SDS011;23374;52.758;6.872;2023-03-20T14:03:55;10.47;;;2.60;;
37529;SDS011;23374;52.758;6.872;2023-03-20T14:06:42;5.30;;;2.60;;
37529;SDS011;23374;52.758;6.872;2023-03-20T14:09:32;5.80;;;2.50;;
37529;SDS011;23374;52.758;6.872;2023-03-20T14:11:59;6.50;;;2.47;;
37529;SDS011;23374;52.758;6.872;2023-03-20T14:14:28;3.43;;;2.33;;
37529;SDS011;23374;52.758;6.872;2023-03-20T14:20:41;8.10;;;2.40;;
37529;SDS011;23374;52.758;6.872;2023-03-20T14:23:03;7.90;;;2.30;;
37529;SDS011;23374;52.758;6.872;2023-03-20T14:25:26;3.73;;;2.07;;
37529;SDS011;23374;52.758;6.872;2023-03-20T14:28:06;5.23;;;2.30;;
37529;SDS011;23374;52.758;6.872;2023-03-20T14:30:47;3.90;;;1.90;;
37529;SDS011;23374;52.758;6.872;2023-03-20T14:33:43;5.70;;;2.30;;
37529;SDS011;23374;52.758;6.872;2023-03-20T14:36:17;5.43;;;2.27;;
37529;SDS011;23374;52.758;6.872;2023-03-20T14:40:21;2.70;;;1.83;;
37529;SDS011;23374;52.758;6.872;2023-03-20T14:42:53;4.50;;;2.27;;
37529;SDS011;23374;52.758;6.872;2023-03-20T14:52:18;3.63;;;2.30;;
37529;SDS011;23374;52.758;6.872;2023-03-20T14:54:52;4.70;;;2.53;;
37529;SDS011;23374;52.758;6.872;2023-03-20T14:57:17;4.57;;;2.37;;
37529;SDS011;23374;52.758;6.872;2023-03-20T14:59:50;6.03;;;2.90;;
37529;SDS011;23374;52.758;6.872;2023-03-20T15:02:49;5.27;;;2.93;;
37529;SDS011;23374;52.758;6.872;2023-03-20T15:06:16;7.57;;;3.60;;
37529;SDS011;23374;52.758;6.872;2023-03-20T15:08:44;5.77;;;2.97;;
37529;SDS011;23374;52.758;6.872;2023-03-20T15:11:11;13.60;;;3.80;;
37529;SDS011;23374;52.758;6.872;2023-03-20T15:13:34;7.47;;;3.33;;
37529;SDS011;23374;52.758;6.872;2023-03-20T15:15:58;5.13;;;3.80;;
37529;SDS011;23374;52.758;6.872;2023-03-20T15:18:26;5.73;;;3.20;;
37529;SDS011;23374;52.758;6.872;2023-03-20T15:20:47;8.33;;;4.13;;
37529;SDS011;23374;52.758;6.872;2023-03-20T15:23:08;5.33;;;3.30;;
37529;SDS011;23374;52.758;6.872;2023-03-20T15:25:42;11.13;;;4.33;;
37529;SDS011;23374;52.758;6.872;2023-03-20T15:28:06;9.40;;;3.77;;
37529;SDS011;23374;52.758;6.872;2023-03-20T15:30:27;6.60;;;2.87;;
37529;SDS011;23374;52.758;6.872;2023-03-20T15:32:52;7.77;;;3.33;;
37529;SDS011;23374;52.758;6.872;2023-03-20T15:35:16;8.07;;;4.17;;
37529;SDS011;23374;52.758;6.872;2023-03-20T15:37:41;7.43;;;4.20;;
37529;SDS011;23374;52.758;6.872;2023-03-20T15:40:16;7.00;;;4.13;;
37529;SDS011;23374;52.758;6.872;2023-03-20T15:43:02;8.60;;;3.83;;
37529;SDS011;23374;52.758;6.872;2023-03-20T15:45:32;12.47;;;4.67;;
37529;SDS011;23374;52.758;6.872;2023-03-20T15:48:04;10.47;;;4.47;;
37529;SDS011;23374;52.758;6.872;2023-03-20T15:50:30;7.83;;;4.90;;
37529;SDS011;23374;52.758;6.872;2023-03-20T15:52:55;8.03;;;3.77;;
37529;SDS011;23374;52.758;6.872;2023-03-20T15:55:18;8.67;;;4.77;;
37529;SDS011;23374;52.758;6.872;2023-03-20T15:57:42;7.97;;;4.10;;
37529;SDS011;23374;52.758;6.872;2023-03-20T16:00:08;10.57;;;4.33;;
37529;SDS011;23374;52.758;6.872;2023-03-20T16:02:35;7.83;;;4.20;;
37529;SDS011;23374;52.758;6.872;2023-03-20T16:04:57;8.60;;;4.80;;
37529;SDS011;23374;52.758;6.872;2023-03-20T16:07:19;10.00;;;4.30;;
37529;SDS011;23374;52.758;6.872;2023-03-20T16:09:50;6.70;;;4.07;;
37529;SDS011;23374;52.758;6.872;2023-03-20T16:12:15;6.27;;;4.23;;
37529;SDS011;23374;52.758;6.872;2023-03-20T16:14:36;9.07;;;5.00;;
37529;SDS011;23374;52.758;6.872;2023-03-20T16:16:59;6.73;;;4.77;;
37529;SDS011;23374;52.758;6.872;2023-03-20T16:19:23;9.00;;;4.97;;
37529;SDS011;23374;52.758;6.872;2023-03-20T16:21:51;9.23;;;5.27;;
37529;SDS011;23374;52.758;6.872;2023-03-20T16:24:20;11.17;;;5.60;;
37529;SDS011;23374;52.758;6.872;2023-03-20T16:26:49;8.20;;;4.43;;
37529;SDS011;23374;52.758;6.872;2023-03-20T16:29:12;10.20;;;6.07;;
37529;SDS011;23374;52.758;6.872;2023-03-20T16:31:34;9.93;;;5.43;;
37529;SDS011;23374;52.758;6.872;2023-03-20T16:34:06;10.47;;;5.67;;
37529;SDS011;23374;52.758;6.872;2023-03-20T16:36:35;8.10;;;4.50;;
37529;SDS011;23374;52.758;6.872;2023-03-20T16:39:17;8.50;;;5.63;;
37529;SDS011;23374;52.758;6.872;2023-03-20T16:41:39;11.30;;;5.77;;
37529;SDS011;23374;52.758;6.872;2023-03-20T16:44:09;9.47;;;5.50;;
37529;SDS011;23374;52.758;6.872;2023-03-20T16:47:00;11.07;;;5.37;;